Buoy 51788

sailwx.info

Track history (hours):
 
Tides and Currents Weather Stations Pressure Air Temp Water Temp Dewpoint Dewpoint Depression Visibility Wind Speed Wind Dir Waves Ship Positions

Drifting buoy 51788

Last reported at 2018-Feb-25 12:00 UTC. Time now 2018-Feb-25 17:46 UTC.
Position N 33°19' E 154°27'.

Water temperature 15.7 ° C

Date/timePositionNaut miles runAvg speedWind from/ knotsBaromVisibWave heightAir tempDewpointWater temp
2018-Feb-25 12:00N 33°19' E 154°27'0 0.0 15.7
2018-Feb-25 11:00N 33°19' E 154°27'2 1.9 15.8
2018-Feb-25 10:00N 33°17' E 154°29'1 0.5 15.8
2018-Feb-25 09:00N 33°17' E 154°29'1 1.2 15.8
2018-Feb-25 08:00N 33°17' E 154°31'4 1.5 15.9
2018-Feb-25 05:00N 33°15' E 154°35'1 0.5 16.2
2018-Feb-25 04:00N 33°15' E 154°35'5 1.4 16.2
2018-Feb-25 00:00N 33°12' E 154°40'2 2.3 15.7
2018-Feb-24 23:00N 33°10' E 154°42'0 0.0 15.6
2018-Feb-24 22:00N 33°10' E 154°42'2 1.9 15.6
2018-Feb-24 21:00N 33°09' E 154°44'2 1.6 15.6
2018-Feb-24 20:00N 33°08' E 154°45'0 0.0 15.6
2018-Feb-24 19:00N 33°08' E 154°45'1 1.3 15.6
2018-Feb-24 18:00N 33°07' E 154°46'9 8.8 15.6
2018-Feb-24 17:00N 32°59' E 154°52'1 0.2 15.6
2018-Feb-24 11:00N 32°59' E 154°53'1 0.8 15.6
2018-Feb-24 10:00N 32°58' E 154°53'2 0.8 15.6
2018-Feb-24 07:00N 32°56' E 154°55'2 1.8 15.5
2018-Feb-24 06:00N 32°55' E 154°55'1 0.5 15.5
2018-Feb-24 05:00N 32°55' E 154°55'0 0.0 15.5
2018-Feb-24 04:00N 32°55' E 154°55'4 4.2 15.5
2018-Feb-24 03:00N 32°50' E 154°55'2 0.6 15.5
2018-Feb-23 23:00N 32°48' E 154°56'0 0.0 15.5
2018-Feb-23 22:00N 32°48' E 154°56'4 1.8 15.5
2018-Feb-23 20:00N 32°44' E 154°56'1 0.3 15.5
2018-Feb-23 18:00N 32°44' E 154°56'5 0.9 15.4
2018-Feb-23 12:00N 32°38' E 154°55'0 0.0 15.4
2018-Feb-23 11:00N 32°38' E 154°55'1 0.6 15.5
2018-Feb-23 10:00N 32°38' E 154°55'1 0.5 15.5
2018-Feb-23 09:00N 32°38' E 154°54'4 1.1 15.5
2018-Feb-23 05:00N 32°34' E 154°51'2 2.4 15.5
2018-Feb-23 04:00N 32°32' E 154°49'2 2.4 15.5
2018-Feb-23 03:00N 32°30' E 154°49'1 0.2 15.5
2018-Feb-23 00:00N 32°29' E 154°49'1 0.8 15.4
2018-Feb-22 23:00N 32°29' E 154°49'1 0.8 15.4
2018-Feb-22 22:00N 32°28' E 154°48'2 0.7 15.4
2018-Feb-22 19:00N 32°26' E 154°47'1 0.8 15.4
2018-Feb-22 18:00N 32°26' E 154°46'0 0.0 15.4
2018-Feb-22 17:00N 32°26' E 154°46'5 0.8 15.4
2018-Feb-22 11:00N 32°23' E 154°42'2 1.6 15.4
2018-Feb-22 10:00N 32°22' E 154°41'1 1.3 15.5
2018-Feb-22 09:00N 32°20' E 154°40'0 0.0 15.5
2018-Feb-22 08:00N 32°20' E 154°40'1 0.5 15.5
2018-Feb-22 07:00N 32°20' E 154°41'2 1.0 15.6
2018-Feb-22 05:00N 32°19' E 154°39'1 0.8 15.6
2018-Feb-22 04:00N 32°19' E 154°38'0 0.0 15.5
2018-Feb-22 03:00N 32°19' E 154°38'2 0.8 15.5
2018-Feb-22 01:00N 32°19' E 154°37'1 1.0 15.4
2018-Feb-22 00:00N 32°19' E 154°35'2 1.1 15.4
2018-Feb-21 22:00N 32°19' E 154°33'0 0.0 15.4
2018-Feb-21 21:00N 32°19' E 154°33'1 0.5 15.4
2018-Feb-21 20:00N 32°19' E 154°32'2 1.5 15.4
2018-Feb-21 19:00N 32°19' E 154°31'1 0.8 15.4
2018-Feb-21 18:00N 32°19' E 154°31'2 2.0 15.4
2018-Feb-21 17:00N 32°19' E 154°29'5 0.8 15.5
2018-Feb-21 11:00N 32°18' E 154°23'1 1.0 15.6
2018-Feb-21 10:00N 32°18' E 154°22'1 0.8 15.6
2018-Feb-21 09:00N 32°17' E 154°22'1 0.5 15.6
2018-Feb-21 07:00N 32°17' E 154°20'1 0.8 15.6
2018-Feb-21 06:00N 32°17' E 154°20'0 0.0 15.6
2018-Feb-21 05:00N 32°17' E 154°20'1 0.8 15.6
2018-Feb-21 04:00N 32°17' E 154°19'2 1.6 15.5
2018-Feb-21 03:00N 32°18' E 154°17'1 0.3 15.5
2018-Feb-21 00:00N 32°19' E 154°17'1 0.5 15.4
2018-Feb-20 23:00N 32°19' E 154°16'1 1.0 15.3
2018-Feb-20 22:00N 32°19' E 154°15'0 0.0 15.3
2018-Feb-20 21:00N 32°19' E 154°15'1 1.2 15.3
2018-Feb-20 20:00N 32°19' E 154°14'1 0.5 15.3
2018-Feb-20 18:00N 32°19' E 154°13'1 0.5 15.3
2018-Feb-20 17:00N 32°19' E 154°12'2 0.3 15.3
2018-Feb-20 11:00N 32°19' E 154°10'0 0.0 15.3
2018-Feb-20 10:00N 32°19' E 154°10'1 0.8 15.3
2018-Feb-20 09:00N 32°20' E 154°10'1 0.5 15.3
2018-Feb-20 08:00N 32°20' E 154°09'0 0.0 15.3
2018-Feb-20 07:00N 32°20' E 154°09'1 0.5 15.3
2018-Feb-20 06:00N 32°20' E 154°08'1 1.0 15.3
2018-Feb-20 05:00N 32°20' E 154°07'0 0.0 15.4
2018-Feb-20 04:00N 32°20' E 154°07'0 0.0 15.4
2018-Feb-20 03:00N 32°20' E 154°07'2 0.8 15.4
2018-Feb-20 01:00N 32°21' E 154°06'0 0.0 15.4
2018-Feb-20 00:00N 32°21' E 154°06'1 0.5 15.4
2018-Feb-19 23:00N 32°21' E 154°05'2 1.0 15.4
2018-Feb-19 21:00N 32°22' E 154°04'0 0.0 15.4
2018-Feb-19 20:00N 32°22' E 154°04'1 0.5 15.3
2018-Feb-19 19:00N 32°22' E 154°03'0 0.0 15.4
2018-Feb-19 18:00N 32°22' E 154°03'3 1.3 15.4
2018-Feb-19 16:00N 32°23' E 154°00'2 0.4 15.4
2018-Feb-19 11:00N 32°24' E 154°02'1 1.0 15.4
2018-Feb-19 10:00N 32°24' E 154°01'1 1.2 15.4
2018-Feb-19 09:00N 32°25' E 154°01'2 1.6 15.4
2018-Feb-19 08:00N 32°26' E 153°59'1 1.2 15.4
2018-Feb-19 07:00N 32°27' E 153°59'0 0.0 15.4
2018-Feb-19 06:00N 32°27' E 153°59'1 1.2 15.4
2018-Feb-19 05:00N 32°28' E 153°58'2 2.1 15.5
2018-Feb-19 04:00N 32°29' E 153°56'0 0.0 15.5
2018-Feb-19 03:00N 32°29' E 153°56'1 0.3 15.5
2018-Feb-18 23:00N 32°29' E 153°55'2 0.5 15.4
2018-Feb-18 19:00N 32°31' E 153°56'1 0.8 15.4
2018-Feb-18 18:00N 32°32' E 153°56'3 3.0 15.4
2018-Feb-18 17:00N 32°35' E 153°56'0 0.0 15.4
2018-Feb-18 16:00N 32°35' E 153°56'0 0.0 15.4
2018-Feb-18 12:00N 32°35' E 153°56'1 1.2 15.4
2018-Feb-18 11:00N 32°36' E 153°56'1 1.0 15.4
2018-Feb-18 10:00N 32°36' E 153°55'1 0.8 15.5
2018-Feb-18 09:00N 32°37' E 153°55'1 1.0 15.5
2018-Feb-18 08:00N 32°37' E 153°54'1 0.8 15.6
2018-Feb-18 07:00N 32°37' E 153°53'1 0.6 15.6
2018-Feb-18 06:00N 32°38' E 153°53'0 0.0 15.7
2018-Feb-18 05:00N 32°38' E 153°53'1 1.2 15.7
2018-Feb-18 04:00N 32°38' E 153°55'0 0.0 15.7
2018-Feb-18 03:00N 32°38' E 153°55'2 0.7 15.8
2018-Feb-18 00:00N 32°40' E 153°56'1 0.4 15.9
2018-Feb-17 22:00N 32°41' E 153°55'2 1.2 15.9
2018-Feb-17 20:00N 32°43' E 153°56'0 0.0 16.0
2018-Feb-17 19:00N 32°43' E 153°56'2 1.8 16.0
2018-Feb-17 18:00N 32°45' E 153°56'3 3.2 15.9
2018-Feb-17 17:00N 32°48' E 153°55'0 0.0 15.9
2018-Feb-17 16:00N 32°48' E 153°55'1 0.1 15.8
2018-Feb-17 11:00N 32°49' E 153°55'1 0.6 16.0
2018-Feb-17 10:00N 32°48' E 153°55'0 0.0 16.0
2018-Feb-17 09:00N 32°48' E 153°55'1 1.0 16.1
2018-Feb-17 08:00N 32°48' E 153°53'1 0.8 16.1
2018-Feb-17 07:00N 32°47' E 153°54'1 0.8 16.2
2018-Feb-17 06:00N 32°48' E 153°53'1 1.3 16.2
2018-Feb-17 05:00N 32°47' E 153°54'4 3.7 16.2
2018-Feb-17 04:00N 32°46' E 153°58'2 0.4 16.2
2018-Feb-17 00:00N 32°46' E 154°00'1 0.6 16.1
2018-Feb-16 22:00N 32°46' E 154°01'2 1.9 16.1
2018-Feb-16 21:00N 32°47' E 154°03'1 0.3 16.1
2018-Feb-16 19:00N 32°48' E 154°03'0 0.0 16.1
2018-Feb-16 18:00N 32°48' E 154°03'3 3.1 16.1
2018-Feb-16 17:00N 32°46' E 154°06'0 0.0 16.1
2018-Feb-16 16:00N 32°46' E 154°06'1 0.2 16.2
2018-Feb-16 12:00N 32°46' E 154°06'1 0.5 16.2
2018-Feb-16 11:00N 32°46' E 154°07'1 1.2 16.2
2018-Feb-16 10:00N 32°45' E 154°08'1 1.0 16.2
2018-Feb-16 09:00N 32°45' E 154°09'1 1.0 16.2
2018-Feb-16 08:00N 32°45' E 154°10'6 1.9 16.2
2018-Feb-16 05:00N 32°47' E 154°17'0 0.0 16.2
2018-Feb-16 04:00N 32°47' E 154°17'0 0.0 16.2
2018-Feb-16 00:00N 32°47' E 154°17'1 0.6 16.2
2018-Feb-15 23:00N 32°46' E 154°17'1 0.6 16.2
2018-Feb-15 22:00N 32°47' E 154°17'1 0.4 16.2
2018-Feb-15 19:00N 32°46' E 154°16'1 0.8 16.3
2018-Feb-15 18:00N 32°45' E 154°17'5 4.7 16.3
2018-Feb-15 17:00N 32°41' E 154°20'   16.3
Track history (hours):
 
Tides and Currents Weather Stations Pressure Air Temp Water Temp Dewpoint Dewpoint Depression Visibility Wind Speed Wind Dir Waves Ship Positions

Drifting buoy 51788

Last reported at 2018-Feb-25 12:00 UTC. Time now 2018-Feb-25 17:46 UTC.
Position N 33°19' E 154°27'.

Water temperature 15.7 ° C

Date/timePositionNaut miles runAvg speedWind from/ knotsBaromVisibWave heightAir tempDewpointWater temp
2018-Feb-25 12:00N 33°19' E 154°27'0 0.0 15.7
2018-Feb-25 11:00N 33°19' E 154°27'2 1.9 15.8
2018-Feb-25 10:00N 33°17' E 154°29'1 0.5 15.8
2018-Feb-25 09:00N 33°17' E 154°29'1 1.2 15.8
2018-Feb-25 08:00N 33°17' E 154°31'4 1.5 15.9
2018-Feb-25 05:00N 33°15' E 154°35'1 0.5 16.2
2018-Feb-25 04:00N 33°15' E 154°35'5 1.4 16.2
2018-Feb-25 00:00N 33°12' E 154°40'2 2.3 15.7
2018-Feb-24 23:00N 33°10' E 154°42'0 0.0 15.6
2018-Feb-24 22:00N 33°10' E 154°42'2 1.9 15.6
2018-Feb-24 21:00N 33°09' E 154°44'2 1.6 15.6
2018-Feb-24 20:00N 33°08' E 154°45'0 0.0 15.6
2018-Feb-24 19:00N 33°08' E 154°45'1 1.3 15.6
2018-Feb-24 18:00N 33°07' E 154°46'9 8.8 15.6
2018-Feb-24 17:00N 32°59' E 154°52'1 0.2 15.6
2018-Feb-24 11:00N 32°59' E 154°53'1 0.8 15.6
2018-Feb-24 10:00N 32°58' E 154°53'2 0.8 15.6
2018-Feb-24 07:00N 32°56' E 154°55'2 1.8 15.5
2018-Feb-24 06:00N 32°55' E 154°55'1 0.5 15.5
2018-Feb-24 05:00N 32°55' E 154°55'0 0.0 15.5
2018-Feb-24 04:00N 32°55' E 154°55'4 4.2 15.5
2018-Feb-24 03:00N 32°50' E 154°55'2 0.6 15.5
2018-Feb-23 23:00N 32°48' E 154°56'0 0.0 15.5
2018-Feb-23 22:00N 32°48' E 154°56'4 1.8 15.5
2018-Feb-23 20:00N 32°44' E 154°56'1 0.3 15.5
2018-Feb-23 18:00N 32°44' E 154°56'5 0.9 15.4
2018-Feb-23 12:00N 32°38' E 154°55'0 0.0 15.4
2018-Feb-23 11:00N 32°38' E 154°55'1 0.6 15.5
2018-Feb-23 10:00N 32°38' E 154°55'1 0.5 15.5
2018-Feb-23 09:00N 32°38' E 154°54'4 1.1 15.5
2018-Feb-23 05:00N 32°34' E 154°51'2 2.4 15.5
2018-Feb-23 04:00N 32°32' E 154°49'2 2.4 15.5
2018-Feb-23 03:00N 32°30' E 154°49'1 0.2 15.5
2018-Feb-23 00:00N 32°29' E 154°49'1 0.8 15.4
2018-Feb-22 23:00N 32°29' E 154°49'1 0.8 15.4
2018-Feb-22 22:00N 32°28' E 154°48'2 0.7 15.4
2018-Feb-22 19:00N 32°26' E 154°47'1 0.8 15.4
2018-Feb-22 18:00N 32°26' E 154°46'0 0.0 15.4
2018-Feb-22 17:00N 32°26' E 154°46'5 0.8 15.4
2018-Feb-22 11:00N 32°23' E 154°42'2 1.6 15.4
2018-Feb-22 10:00N 32°22' E 154°41'1 1.3 15.5
2018-Feb-22 09:00N 32°20' E 154°40'0 0.0 15.5
2018-Feb-22 08:00N 32°20' E 154°40'1 0.5 15.5
2018-Feb-22 07:00N 32°20' E 154°41'2 1.0 15.6
2018-Feb-22 05:00N 32°19' E 154°39'1 0.8 15.6
2018-Feb-22 04:00N 32°19' E 154°38'0 0.0 15.5
2018-Feb-22 03:00N 32°19' E 154°38'2 0.8 15.5
2018-Feb-22 01:00N 32°19' E 154°37'1 1.0 15.4
2018-Feb-22 00:00N 32°19' E 154°35'2 1.1 15.4
2018-Feb-21 22:00N 32°19' E 154°33'0 0.0 15.4
2018-Feb-21 21:00N 32°19' E 154°33'1 0.5 15.4
2018-Feb-21 20:00N 32°19' E 154°32'2 1.5 15.4
2018-Feb-21 19:00N 32°19' E 154°31'1 0.8 15.4
2018-Feb-21 18:00N 32°19' E 154°31'2 2.0 15.4
2018-Feb-21 17:00N 32°19' E 154°29'5 0.8 15.5
2018-Feb-21 11:00N 32°18' E 154°23'1 1.0 15.6
2018-Feb-21 10:00N 32°18' E 154°22'1 0.8 15.6
2018-Feb-21 09:00N 32°17' E 154°22'1 0.5 15.6
2018-Feb-21 07:00N 32°17' E 154°20'1 0.8 15.6
2018-Feb-21 06:00N 32°17' E 154°20'0 0.0 15.6
2018-Feb-21 05:00N 32°17' E 154°20'1 0.8 15.6
2018-Feb-21 04:00N 32°17' E 154°19'2 1.6 15.5
2018-Feb-21 03:00N 32°18' E 154°17'1 0.3 15.5
2018-Feb-21 00:00N 32°19' E 154°17'1 0.5 15.4
2018-Feb-20 23:00N 32°19' E 154°16'1 1.0 15.3
2018-Feb-20 22:00N 32°19' E 154°15'0 0.0 15.3
2018-Feb-20 21:00N 32°19' E 154°15'1 1.2 15.3
2018-Feb-20 20:00N 32°19' E 154°14'1 0.5 15.3
2018-Feb-20 18:00N 32°19' E 154°13'1 0.5 15.3
2018-Feb-20 17:00N 32°19' E 154°12'2 0.3 15.3
2018-Feb-20 11:00N 32°19' E 154°10'0 0.0 15.3
2018-Feb-20 10:00N 32°19' E 154°10'1 0.8 15.3
2018-Feb-20 09:00N 32°20' E 154°10'1 0.5 15.3
2018-Feb-20 08:00N 32°20' E 154°09'0 0.0 15.3
2018-Feb-20 07:00N 32°20' E 154°09'1 0.5 15.3
2018-Feb-20 06:00N 32°20' E 154°08'1 1.0 15.3
2018-Feb-20 05:00N 32°20' E 154°07'0 0.0 15.4
2018-Feb-20 04:00N 32°20' E 154°07'0 0.0 15.4
2018-Feb-20 03:00N 32°20' E 154°07'2 0.8 15.4
2018-Feb-20 01:00N 32°21' E 154°06'0 0.0 15.4
2018-Feb-20 00:00N 32°21' E 154°06'1 0.5 15.4
2018-Feb-19 23:00N 32°21' E 154°05'2 1.0 15.4
2018-Feb-19 21:00N 32°22' E 154°04'0 0.0 15.4
2018-Feb-19 20:00N 32°22' E 154°04'1 0.5 15.3
2018-Feb-19 19:00N 32°22' E 154°03'0 0.0 15.4
2018-Feb-19 18:00N 32°22' E 154°03'3 1.3 15.4
2018-Feb-19 16:00N 32°23' E 154°00'2 0.4 15.4
2018-Feb-19 11:00N 32°24' E 154°02'1 1.0 15.4
2018-Feb-19 10:00N 32°24' E 154°01'1 1.2 15.4
2018-Feb-19 09:00N 32°25' E 154°01'2 1.6 15.4
2018-Feb-19 08:00N 32°26' E 153°59'1 1.2 15.4
2018-Feb-19 07:00N 32°27' E 153°59'0 0.0 15.4
2018-Feb-19 06:00N 32°27' E 153°59'1 1.2 15.4
2018-Feb-19 05:00N 32°28' E 153°58'2 2.1 15.5
2018-Feb-19 04:00N 32°29' E 153°56'0 0.0 15.5
2018-Feb-19 03:00N 32°29' E 153°56'1 0.3 15.5
2018-Feb-18 23:00N 32°29' E 153°55'2 0.5 15.4
2018-Feb-18 19:00N 32°31' E 153°56'1 0.8 15.4
2018-Feb-18 18:00N 32°32' E 153°56'3 3.0 15.4
2018-Feb-18 17:00N 32°35' E 153°56'0 0.0 15.4
2018-Feb-18 16:00N 32°35' E 153°56'0 0.0 15.4
2018-Feb-18 12:00N 32°35' E 153°56'1 1.2 15.4
2018-Feb-18 11:00N 32°36' E 153°56'1 1.0 15.4
2018-Feb-18 10:00N 32°36' E 153°55'1 0.8 15.5
2018-Feb-18 09:00N 32°37' E 153°55'1 1.0 15.5
2018-Feb-18 08:00N 32°37' E 153°54'1 0.8 15.6
2018-Feb-18 07:00N 32°37' E 153°53'1 0.6 15.6
2018-Feb-18 06:00N 32°38' E 153°53'0 0.0 15.7
2018-Feb-18 05:00N 32°38' E 153°53'1 1.2 15.7
2018-Feb-18 04:00N 32°38' E 153°55'0 0.0 15.7
2018-Feb-18 03:00N 32°38' E 153°55'2 0.7 15.8
2018-Feb-18 00:00N 32°40' E 153°56'1 0.4 15.9
2018-Feb-17 22:00N 32°41' E 153°55'2 1.2 15.9
2018-Feb-17 20:00N 32°43' E 153°56'0 0.0 16.0
2018-Feb-17 19:00N 32°43' E 153°56'2 1.8 16.0
2018-Feb-17 18:00N 32°45' E 153°56'3 3.2 15.9
2018-Feb-17 17:00N 32°48' E 153°55'0 0.0 15.9
2018-Feb-17 16:00N 32°48' E 153°55'1 0.1 15.8
2018-Feb-17 11:00N 32°49' E 153°55'1 0.6 16.0
2018-Feb-17 10:00N 32°48' E 153°55'0 0.0 16.0
2018-Feb-17 09:00N 32°48' E 153°55'1 1.0 16.1
2018-Feb-17 08:00N 32°48' E 153°53'1 0.8 16.1
2018-Feb-17 07:00N 32°47' E 153°54'1 0.8 16.2
2018-Feb-17 06:00N 32°48' E 153°53'1 1.3 16.2
2018-Feb-17 05:00N 32°47' E 153°54'4 3.7 16.2
2018-Feb-17 04:00N 32°46' E 153°58'2 0.4 16.2
2018-Feb-17 00:00N 32°46' E 154°00'1 0.6 16.1
2018-Feb-16 22:00N 32°46' E 154°01'2 1.9 16.1
2018-Feb-16 21:00N 32°47' E 154°03'1 0.3 16.1
2018-Feb-16 19:00N 32°48' E 154°03'0 0.0 16.1
2018-Feb-16 18:00N 32°48' E 154°03'3 3.1 16.1
2018-Feb-16 17:00N 32°46' E 154°06'0 0.0 16.1
2018-Feb-16 16:00N 32°46' E 154°06'1 0.2 16.2
2018-Feb-16 12:00N 32°46' E 154°06'1 0.5 16.2
2018-Feb-16 11:00N 32°46' E 154°07'1 1.2 16.2
2018-Feb-16 10:00N 32°45' E 154°08'1 1.0 16.2
2018-Feb-16 09:00N 32°45' E 154°09'1 1.0 16.2
2018-Feb-16 08:00N 32°45' E 154°10'6 1.9 16.2
2018-Feb-16 05:00N 32°47' E 154°17'0 0.0 16.2
2018-Feb-16 04:00N 32°47' E 154°17'0 0.0 16.2
2018-Feb-16 00:00N 32°47' E 154°17'1 0.6 16.2
2018-Feb-15 23:00N 32°46' E 154°17'1 0.6 16.2
2018-Feb-15 22:00N 32°47' E 154°17'1 0.4 16.2
2018-Feb-15 19:00N 32°46' E 154°16'1 0.8 16.3
2018-Feb-15 18:00N 32°45' E 154°17'5 4.7 16.3
2018-Feb-15 17:00N 32°41' E 154°20'   16.3

Dump ship's entire track history